sensor_id;sensor_type;location;lat;lon;timestamp;P1;durP1;ratioP1;P2;durP2;ratioP2
50205;SDS011;36098;48.390;10.856;2024-03-02T00:01:50;6.80;;;3.13;;
50205;SDS011;36098;48.390;10.856;2024-03-02T00:04:15;6.13;;;2.70;;
50205;SDS011;36098;48.390;10.856;2024-03-02T00:06:40;6.55;;;3.13;;
50205;SDS011;36098;48.390;10.856;2024-03-02T00:09:05;7.38;;;3.30;;
50205;SDS011;36098;48.390;10.856;2024-03-02T00:11:34;7.05;;;3.05;;
50205;SDS011;36098;48.390;10.856;2024-03-02T00:14:01;10.00;;;3.22;;
50205;SDS011;36098;48.390;10.856;2024-03-02T00:16:29;6.65;;;2.85;;
50205;SDS011;36098;48.390;10.856;2024-03-02T00:18:55;5.15;;;2.80;;
50205;SDS011;36098;48.390;10.856;2024-03-02T00:21:24;6.78;;;3.17;;
50205;SDS011;36098;48.390;10.856;2024-03-02T00:23:52;8.27;;;3.30;;
50205;SDS011;36098;48.390;10.856;2024-03-02T00:26:18;7.13;;;3.58;;
50205;SDS011;36098;48.390;10.856;2024-03-02T00:28:44;5.78;;;2.63;;
50205;SDS011;36098;48.390;10.856;2024-03-02T00:31:13;5.50;;;3.10;;
50205;SDS011;36098;48.390;10.856;2024-03-02T00:33:40;5.82;;;2.70;;
50205;SDS011;36098;48.390;10.856;2024-03-02T00:36:11;7.15;;;2.78;;
50205;SDS011;36098;48.390;10.856;2024-03-02T00:38:47;5.05;;;2.78;;
50205;SDS011;36098;48.390;10.856;2024-03-02T00:41:19;6.90;;;2.95;;
50205;SDS011;36098;48.390;10.856;2024-03-02T00:46:30;5.03;;;2.50;;
50205;SDS011;36098;48.390;10.856;2024-03-02T00:49:03;6.95;;;3.20;;
50205;SDS011;36098;48.390;10.856;2024-03-02T00:51:29;6.13;;;2.97;;
50205;SDS011;36098;48.390;10.856;2024-03-02T00:53:57;5.43;;;3.00;;
50205;SDS011;36098;48.390;10.856;2024-03-02T00:56:24;5.90;;;2.95;;
50205;SDS011;36098;48.390;10.856;2024-03-02T00:58:51;6.10;;;3.05;;
50205;SDS011;36098;48.390;10.856;2024-03-02T01:01:17;5.07;;;2.58;;
50205;SDS011;36098;48.390;10.856;2024-03-02T01:03:44;5.32;;;2.30;;
50205;SDS011;36098;48.390;10.856;2024-03-02T01:06:10;5.60;;;2.95;;
50205;SDS011;36098;48.390;10.856;2024-03-02T01:08:35;6.38;;;2.67;;
50205;SDS011;36098;48.390;10.856;2024-03-02T01:11:01;6.72;;;2.90;;
50205;SDS011;36098;48.390;10.856;2024-03-02T01:13:26;7.45;;;3.10;;
50205;SDS011;36098;48.390;10.856;2024-03-02T01:15:52;6.32;;;2.75;;
50205;SDS011;36098;48.390;10.856;2024-03-02T01:18:18;5.15;;;2.90;;
50205;SDS011;36098;48.390;10.856;2024-03-02T01:20:43;5.20;;;2.55;;
50205;SDS011;36098;48.390;10.856;2024-03-02T01:23:08;5.53;;;2.60;;
50205;SDS011;36098;48.390;10.856;2024-03-02T01:25:34;5.50;;;2.53;;
50205;SDS011;36098;48.390;10.856;2024-03-02T01:28:00;4.80;;;2.60;;
50205;SDS011;36098;48.390;10.856;2024-03-02T01:30:26;5.15;;;2.50;;
50205;SDS011;36098;48.390;10.856;2024-03-02T01:32:51;5.38;;;2.55;;
50205;SDS011;36098;48.390;10.856;2024-03-02T01:35:16;6.10;;;2.65;;
50205;SDS011;36098;48.390;10.856;2024-03-02T01:37:41;5.78;;;2.50;;
50205;SDS011;36098;48.390;10.856;2024-03-02T01:40:07;5.60;;;2.63;;
50205;SDS011;36098;48.390;10.856;2024-03-02T01:42:37;5.30;;;2.35;;
50205;SDS011;36098;48.390;10.856;2024-03-02T01:45:07;4.60;;;2.53;;
50205;SDS011;36098;48.390;10.856;2024-03-02T01:47:33;5.07;;;2.63;;
50205;SDS011;36098;48.390;10.856;2024-03-02T01:49:59;3.03;;;2.08;;
50205;SDS011;36098;48.390;10.856;2024-03-02T01:52:25;5.60;;;2.50;;
50205;SDS011;36098;48.390;10.856;2024-03-02T01:54:50;6.90;;;2.80;;
50205;SDS011;36098;48.390;10.856;2024-03-02T01:57:15;5.80;;;2.40;;
50205;SDS011;36098;48.390;10.856;2024-03-02T01:59:41;5.40;;;2.85;;
50205;SDS011;36098;48.390;10.856;2024-03-02T02:02:06;4.15;;;2.25;;
50205;SDS011;36098;48.390;10.856;2024-03-02T02:04:32;4.88;;;2.75;;
50205;SDS011;36098;48.390;10.856;2024-03-02T02:06:57;4.03;;;2.38;;
50205;SDS011;36098;48.390;10.856;2024-03-02T02:09:23;5.18;;;2.40;;
50205;SDS011;36098;48.390;10.856;2024-03-02T02:11:50;4.57;;;2.30;;
50205;SDS011;36098;48.390;10.856;2024-03-02T02:14:16;3.67;;;2.10;;
50205;SDS011;36098;48.390;10.856;2024-03-02T02:16:41;4.25;;;2.40;;
50205;SDS011;36098;48.390;10.856;2024-03-02T02:19:06;4.55;;;2.50;;
50205;SDS011;36098;48.390;10.856;2024-03-02T02:21:31;4.88;;;2.50;;
50205;SDS011;36098;48.390;10.856;2024-03-02T02:23:57;3.60;;;1.80;;
50205;SDS011;36098;48.390;10.856;2024-03-02T02:26:22;4.43;;;2.47;;
50205;SDS011;36098;48.390;10.856;2024-03-02T02:28:47;3.85;;;2.28;;
50205;SDS011;36098;48.390;10.856;2024-03-02T02:31:13;5.22;;;3.10;;
50205;SDS011;36098;48.390;10.856;2024-03-02T02:33:39;5.05;;;2.47;;
50205;SDS011;36098;48.390;10.856;2024-03-02T02:36:08;3.90;;;2.28;;
50205;SDS011;36098;48.390;10.856;2024-03-02T02:38:35;5.22;;;2.28;;
50205;SDS011;36098;48.390;10.856;2024-03-02T02:41:03;5.43;;;2.33;;
50205;SDS011;36098;48.390;10.856;2024-03-02T02:43:29;3.90;;;2.15;;
50205;SDS011;36098;48.390;10.856;2024-03-02T02:45:54;4.60;;;2.20;;
50205;SDS011;36098;48.390;10.856;2024-03-02T02:48:19;4.95;;;2.60;;
50205;SDS011;36098;48.390;10.856;2024-03-02T02:50:44;4.28;;;2.33;;
50205;SDS011;36098;48.390;10.856;2024-03-02T02:53:10;4.80;;;2.45;;
50205;SDS011;36098;48.390;10.856;2024-03-02T02:55:35;3.97;;;2.25;;
50205;SDS011;36098;48.390;10.856;2024-03-02T02:58:05;5.03;;;2.42;;
50205;SDS011;36098;48.390;10.856;2024-03-02T03:00:33;4.15;;;2.00;;
50205;SDS011;36098;48.390;10.856;2024-03-02T03:02:58;3.20;;;1.85;;
50205;SDS011;36098;48.390;10.856;2024-03-02T03:05:24;5.00;;;2.20;;
50205;SDS011;36098;48.390;10.856;2024-03-02T03:07:49;4.28;;;2.40;;
50205;SDS011;36098;48.390;10.856;2024-03-02T03:10:15;3.03;;;1.95;;
50205;SDS011;36098;48.390;10.856;2024-03-02T03:12:41;6.53;;;2.40;;
50205;SDS011;36098;48.390;10.856;2024-03-02T03:15:10;4.25;;;2.10;;
50205;SDS011;36098;48.390;10.856;2024-03-02T03:17:36;4.07;;;2.08;;
50205;SDS011;36098;48.390;10.856;2024-03-02T03:20:02;3.50;;;2.20;;
50205;SDS011;36098;48.390;10.856;2024-03-02T03:22:29;2.83;;;2.00;;
50205;SDS011;36098;48.390;10.856;2024-03-02T03:24:54;3.65;;;2.25;;
50205;SDS011;36098;48.390;10.856;2024-03-02T03:27:20;4.10;;;1.95;;
50205;SDS011;36098;48.390;10.856;2024-03-02T03:29:45;3.28;;;2.30;;
50205;SDS011;36098;48.390;10.856;2024-03-02T03:32:11;4.13;;;2.13;;
50205;SDS011;36098;48.390;10.856;2024-03-02T03:34:36;3.05;;;2.03;;
50205;SDS011;36098;48.390;10.856;2024-03-02T03:37:02;3.65;;;1.95;;
50205;SDS011;36098;48.390;10.856;2024-03-02T03:39:27;3.40;;;1.95;;
50205;SDS011;36098;48.390;10.856;2024-03-02T03:41:53;4.10;;;1.95;;
50205;SDS011;36098;48.390;10.856;2024-03-02T03:44:19;5.28;;;2.20;;
50205;SDS011;36098;48.390;10.856;2024-03-02T03:46:44;3.67;;;2.05;;
50205;SDS011;36098;48.390;10.856;2024-03-02T03:49:09;3.83;;;2.03;;
50205;SDS011;36098;48.390;10.856;2024-03-02T03:51:35;3.22;;;2.00;;
50205;SDS011;36098;48.390;10.856;2024-03-02T03:54:00;3.65;;;2.05;;
50205;SDS011;36098;48.390;10.856;2024-03-02T03:56:26;4.80;;;1.95;;
50205;SDS011;36098;48.390;10.856;2024-03-02T03:58:51;3.08;;;1.90;;
50205;SDS011;36098;48.390;10.856;2024-03-02T04:01:17;2.85;;;1.60;;
50205;SDS011;36098;48.390;10.856;2024-03-02T04:03:42;4.28;;;1.65;;
50205;SDS011;36098;48.390;10.856;2024-03-02T04:06:08;4.07;;;1.98;;
50205;SDS011;36098;48.390;10.856;2024-03-02T04:08:33;3.85;;;1.70;;
50205;SDS011;36098;48.390;10.856;2024-03-02T04:10:58;3.72;;;2.13;;
50205;SDS011;36098;48.390;10.856;2024-03-02T04:13:23;3.28;;;1.70;;
50205;SDS011;36098;48.390;10.856;2024-03-02T04:15:50;2.65;;;1.77;;
50205;SDS011;36098;48.390;10.856;2024-03-02T04:18:15;2.50;;;1.63;;
50205;SDS011;36098;48.390;10.856;2024-03-02T04:20:41;3.38;;;2.05;;
50205;SDS011;36098;48.390;10.856;2024-03-02T04:23:06;3.22;;;2.00;;
50205;SDS011;36098;48.390;10.856;2024-03-02T04:25:33;6.75;;;2.05;;
50205;SDS011;36098;48.390;10.856;2024-03-02T04:27:58;5.30;;;2.05;;
50205;SDS011;36098;48.390;10.856;2024-03-02T04:30:23;3.20;;;1.92;;
50205;SDS011;36098;48.390;10.856;2024-03-02T04:32:50;2.38;;;1.55;;
50205;SDS011;36098;48.390;10.856;2024-03-02T04:35:15;3.25;;;1.60;;
50205;SDS011;36098;48.390;10.856;2024-03-02T04:37:40;3.10;;;1.83;;
50205;SDS011;36098;48.390;10.856;2024-03-02T04:40:06;2.85;;;1.55;;
50205;SDS011;36098;48.390;10.856;2024-03-02T04:42:33;4.40;;;2.03;;
50205;SDS011;36098;48.390;10.856;2024-03-02T04:44:58;2.75;;;1.70;;
50205;SDS011;36098;48.390;10.856;2024-03-02T04:47:27;4.30;;;1.98;;
50205;SDS011;36098;48.390;10.856;2024-03-02T04:49:52;3.35;;;1.60;;
50205;SDS011;36098;48.390;10.856;2024-03-02T04:52:17;3.28;;;1.90;;
50205;SDS011;36098;48.390;10.856;2024-03-02T04:54:43;2.88;;;1.70;;
50205;SDS011;36098;48.390;10.856;2024-03-02T04:57:27;3.30;;;1.80;;
50205;SDS011;36098;48.390;10.856;2024-03-02T04:59:52;5.63;;;1.83;;
50205;SDS011;36098;48.390;10.856;2024-03-02T05:02:17;3.25;;;1.67;;
50205;SDS011;36098;48.390;10.856;2024-03-02T05:04:42;3.25;;;1.77;;
50205;SDS011;36098;48.390;10.856;2024-03-02T05:07:08;7.15;;;1.70;;
50205;SDS011;36098;48.390;10.856;2024-03-02T05:09:33;4.05;;;1.60;;
50205;SDS011;36098;48.390;10.856;2024-03-02T05:11:58;3.97;;;1.75;;
50205;SDS011;36098;48.390;10.856;2024-03-02T05:14:42;3.03;;;2.00;;
50205;SDS011;36098;48.390;10.856;2024-03-02T05:17:07;3.92;;;1.88;;
50205;SDS011;36098;48.390;10.856;2024-03-02T05:19:33;2.90;;;1.50;;
50205;SDS011;36098;48.390;10.856;2024-03-02T05:21:58;2.90;;;1.55;;
50205;SDS011;36098;48.390;10.856;2024-03-02T05:24:24;2.88;;;1.75;;
50205;SDS011;36098;48.390;10.856;2024-03-02T05:26:49;2.83;;;1.58;;
50205;SDS011;36098;48.390;10.856;2024-03-02T05:29:14;3.15;;;1.83;;
50205;SDS011;36098;48.390;10.856;2024-03-02T05:31:39;2.67;;;1.80;;
50205;SDS011;36098;48.390;10.856;2024-03-02T05:34:05;2.58;;;1.77;;
50205;SDS011;36098;48.390;10.856;2024-03-02T05:36:31;3.15;;;1.90;;
50205;SDS011;36098;48.390;10.856;2024-03-02T05:38:56;2.40;;;1.73;;
50205;SDS011;36098;48.390;10.856;2024-03-02T05:41:22;3.83;;;1.55;;
50205;SDS011;36098;48.390;10.856;2024-03-02T05:43:47;2.92;;;1.80;;
50205;SDS011;36098;48.390;10.856;2024-03-02T05:46:12;2.55;;;1.63;;
50205;SDS011;36098;48.390;10.856;2024-03-02T05:48:38;2.67;;;1.63;;
50205;SDS011;36098;48.390;10.856;2024-03-02T05:51:03;2.65;;;1.60;;
50205;SDS011;36098;48.390;10.856;2024-03-02T05:53:28;3.05;;;1.38;;
50205;SDS011;36098;48.390;10.856;2024-03-02T05:55:54;3.08;;;1.77;;
50205;SDS011;36098;48.390;10.856;2024-03-02T05:58:20;3.30;;;1.98;;
50205;SDS011;36098;48.390;10.856;2024-03-02T06:00:49;3.55;;;1.73;;
50205;SDS011;36098;48.390;10.856;2024-03-02T06:03:14;3.00;;;1.75;;
50205;SDS011;36098;48.390;10.856;2024-03-02T06:05:40;3.03;;;1.88;;
50205;SDS011;36098;48.390;10.856;2024-03-02T06:08:06;2.95;;;1.73;;
50205;SDS011;36098;48.390;10.856;2024-03-02T06:10:32;3.15;;;1.92;;
50205;SDS011;36098;48.390;10.856;2024-03-02T06:12:57;2.42;;;1.50;;
50205;SDS011;36098;48.390;10.856;2024-03-02T06:15:24;3.85;;;1.90;;
50205;SDS011;36098;48.390;10.856;2024-03-02T06:17:49;5.00;;;1.58;;
50205;SDS011;36098;48.390;10.856;2024-03-02T06:20:15;3.47;;;1.70;;
50205;SDS011;36098;48.390;10.856;2024-03-02T06:22:40;2.72;;;1.80;;
50205;SDS011;36098;48.390;10.856;2024-03-02T06:25:05;3.63;;;1.70;;
50205;SDS011;36098;48.390;10.856;2024-03-02T06:27:31;4.30;;;1.40;;
50205;SDS011;36098;48.390;10.856;2024-03-02T06:29:57;2.38;;;1.45;;
50205;SDS011;36098;48.390;10.856;2024-03-02T06:32:22;4.00;;;1.60;;
50205;SDS011;36098;48.390;10.856;2024-03-02T06:34:50;4.13;;;1.50;;
50205;SDS011;36098;48.390;10.856;2024-03-02T06:37:15;1.98;;;1.48;;
50205;SDS011;36098;48.390;10.856;2024-03-02T06:39:41;2.05;;;1.17;;
50205;SDS011;36098;48.390;10.856;2024-03-02T06:42:06;2.83;;;1.45;;
50205;SDS011;36098;48.390;10.856;2024-03-02T06:44:31;2.72;;;1.70;;
50205;SDS011;36098;48.390;10.856;2024-03-02T06:46:56;9.52;;;1.90;;
50205;SDS011;36098;48.390;10.856;2024-03-02T06:49:22;2.47;;;1.67;;
50205;SDS011;36098;48.390;10.856;2024-03-02T06:51:47;2.42;;;1.60;;
50205;SDS011;36098;48.390;10.856;2024-03-02T06:54:12;3.63;;;1.50;;
50205;SDS011;36098;48.390;10.856;2024-03-02T06:56:37;4.65;;;1.73;;
50205;SDS011;36098;48.390;10.856;2024-03-02T06:59:04;1.80;;;1.25;;
50205;SDS011;36098;48.390;10.856;2024-03-02T07:01:29;4.38;;;1.58;;
50205;SDS011;36098;48.390;10.856;2024-03-02T07:03:54;3.47;;;1.52;;
50205;SDS011;36098;48.390;10.856;2024-03-02T07:06:20;3.17;;;1.60;;
50205;SDS011;36098;48.390;10.856;2024-03-02T07:08:45;5.22;;;1.40;;
50205;SDS011;36098;48.390;10.856;2024-03-02T07:11:10;3.63;;;1.65;;
50205;SDS011;36098;48.390;10.856;2024-03-02T07:13:36;2.97;;;1.70;;
50205;SDS011;36098;48.390;10.856;2024-03-02T07:16:01;3.60;;;1.70;;
50205;SDS011;36098;48.390;10.856;2024-03-02T07:18:29;3.30;;;1.55;;
50205;SDS011;36098;48.390;10.856;2024-03-02T07:21:10;2.50;;;1.58;;
50205;SDS011;36098;48.390;10.856;2024-03-02T07:23:35;2.70;;;1.60;;
50205;SDS011;36098;48.390;10.856;2024-03-02T07:26:01;2.15;;;1.40;;
50205;SDS011;36098;48.390;10.856;2024-03-02T07:28:26;2.88;;;1.60;;
50205;SDS011;36098;48.390;10.856;2024-03-02T07:33:24;3.97;;;1.33;;
50205;SDS011;36098;48.390;10.856;2024-03-02T07:35:50;4.40;;;1.40;;
50205;SDS011;36098;48.390;10.856;2024-03-02T07:38:15;5.82;;;1.45;;
50205;SDS011;36098;48.390;10.856;2024-03-02T07:40:40;6.00;;;1.45;;
50205;SDS011;36098;48.390;10.856;2024-03-02T07:43:06;2.00;;;1.40;;
50205;SDS011;36098;48.390;10.856;2024-03-02T07:45:31;7.35;;;1.40;;
50205;SDS011;36098;48.390;10.856;2024-03-02T07:47:56;4.47;;;1.70;;
50205;SDS011;36098;48.390;10.856;2024-03-02T07:50:22;7.80;;;1.85;;
50205;SDS011;36098;48.390;10.856;2024-03-02T07:52:47;3.25;;;1.63;;
50205;SDS011;36098;48.390;10.856;2024-03-02T07:55:13;3.35;;;1.40;;
50205;SDS011;36098;48.390;10.856;2024-03-02T07:57:38;3.90;;;1.75;;
50205;SDS011;36098;48.390;10.856;2024-03-02T08:00:05;3.63;;;1.50;;
50205;SDS011;36098;48.390;10.856;2024-03-02T08:02:31;3.53;;;1.27;;
50205;SDS011;36098;48.390;10.856;2024-03-02T08:04:56;4.70;;;1.55;;
50205;SDS011;36098;48.390;10.856;2024-03-02T08:07:21;5.75;;;1.50;;
50205;SDS011;36098;48.390;10.856;2024-03-02T08:09:47;5.47;;;1.85;;
50205;SDS011;36098;48.390;10.856;2024-03-02T08:12:12;6.13;;;1.60;;
50205;SDS011;36098;48.390;10.856;2024-03-02T08:14:37;3.60;;;1.40;;
50205;SDS011;36098;48.390;10.856;2024-03-02T08:17:03;2.05;;;1.30;;
50205;SDS011;36098;48.390;10.856;2024-03-02T08:19:34;1.77;;;1.40;;
50205;SDS011;36098;48.390;10.856;2024-03-02T08:21:59;2.30;;;1.38;;
50205;SDS011;36098;48.390;10.856;2024-03-02T08:24:25;2.50;;;1.40;;
50205;SDS011;36098;48.390;10.856;2024-03-02T08:26:50;2.13;;;1.30;;
50205;SDS011;36098;48.390;10.856;2024-03-02T08:29:15;3.72;;;1.40;;
50205;SDS011;36098;48.390;10.856;2024-03-02T08:31:41;3.00;;;1.30;;
50205;SDS011;36098;48.390;10.856;2024-03-02T08:34:06;1.80;;;1.20;;
50205;SDS011;36098;48.390;10.856;2024-03-02T08:36:31;6.07;;;1.52;;
50205;SDS011;36098;48.390;10.856;2024-03-02T08:38:57;3.03;;;1.30;;
50205;SDS011;36098;48.390;10.856;2024-03-02T08:41:22;3.20;;;1.30;;
50205;SDS011;36098;48.390;10.856;2024-03-02T08:43:48;2.65;;;1.20;;
50205;SDS011;36098;48.390;10.856;2024-03-02T08:46:13;3.13;;;1.45;;
50205;SDS011;36098;48.390;10.856;2024-03-02T08:48:39;2.95;;;1.10;;
50205;SDS011;36098;48.390;10.856;2024-03-02T08:51:04;1.98;;;1.33;;
50205;SDS011;36098;48.390;10.856;2024-03-02T08:53:32;1.85;;;1.20;;
50205;SDS011;36098;48.390;10.856;2024-03-02T08:55:58;2.83;;;1.20;;
50205;SDS011;36098;48.390;10.856;2024-03-02T08:58:23;1.33;;;0.95;;
50205;SDS011;36098;48.390;10.856;2024-03-02T09:00:48;6.05;;;1.38;;
50205;SDS011;36098;48.390;10.856;2024-03-02T09:03:14;2.38;;;1.23;;
50205;SDS011;36098;48.390;10.856;2024-03-02T09:05:39;2.83;;;1.10;;
50205;SDS011;36098;48.390;10.856;2024-03-02T09:08:05;3.15;;;1.40;;
50205;SDS011;36098;48.390;10.856;2024-03-02T09:10:30;2.13;;;1.27;;
50205;SDS011;36098;48.390;10.856;2024-03-02T09:12:56;3.10;;;1.10;;
50205;SDS011;36098;48.390;10.856;2024-03-02T09:15:21;3.63;;;1.20;;
50205;SDS011;36098;48.390;10.856;2024-03-02T09:17:46;4.90;;;1.25;;
50205;SDS011;36098;48.390;10.856;2024-03-02T09:20:12;11.27;;;1.20;;
50205;SDS011;36098;48.390;10.856;2024-03-02T09:22:38;3.15;;;1.40;;
50205;SDS011;36098;48.390;10.856;2024-03-02T09:25:04;2.53;;;1.20;;
50205;SDS011;36098;48.390;10.856;2024-03-02T09:27:29;3.63;;;1.27;;
50205;SDS011;36098;48.390;10.856;2024-03-02T09:29:55;1.50;;;1.08;;
50205;SDS011;36098;48.390;10.856;2024-03-02T09:32:20;1.83;;;1.15;;
50205;SDS011;36098;48.390;10.856;2024-03-02T09:34:45;1.80;;;1.10;;
50205;SDS011;36098;48.390;10.856;2024-03-02T09:37:13;5.10;;;1.10;;
50205;SDS011;36098;48.390;10.856;2024-03-02T09:39:38;2.10;;;1.20;;
50205;SDS011;36098;48.390;10.856;2024-03-02T09:42:04;3.63;;;1.10;;
50205;SDS011;36098;48.390;10.856;2024-03-02T09:44:29;3.60;;;1.17;;
50205;SDS011;36098;48.390;10.856;2024-03-02T09:46:55;3.97;;;1.10;;
50205;SDS011;36098;48.390;10.856;2024-03-02T09:49:20;2.15;;;1.20;;
50205;SDS011;36098;48.390;10.856;2024-03-02T09:51:49;3.47;;;1.00;;
50205;SDS011;36098;48.390;10.856;2024-03-02T09:54:15;2.08;;;1.00;;
50205;SDS011;36098;48.390;10.856;2024-03-02T09:56:41;2.08;;;0.98;;
50205;SDS011;36098;48.390;10.856;2024-03-02T09:59:06;1.80;;;1.00;;
50205;SDS011;36098;48.390;10.856;2024-03-02T10:01:32;2.15;;;1.00;;
50205;SDS011;36098;48.390;10.856;2024-03-02T10:03:59;3.65;;;1.30;;
50205;SDS011;36098;48.390;10.856;2024-03-02T10:06:25;2.55;;;1.00;;
50205;SDS011;36098;48.390;10.856;2024-03-02T10:08:51;3.28;;;0.80;;
50205;SDS011;36098;48.390;10.856;2024-03-02T10:14:15;6.10;;;1.10;;
50205;SDS011;36098;48.390;10.856;2024-03-02T10:16:40;1.55;;;1.15;;
50205;SDS011;36098;48.390;10.856;2024-03-02T10:21:48;5.20;;;1.20;;
50205;SDS011;36098;48.390;10.856;2024-03-02T10:24:15;2.60;;;1.00;;
50205;SDS011;36098;48.390;10.856;2024-03-02T10:26:41;2.97;;;1.00;;
50205;SDS011;36098;48.390;10.856;2024-03-02T10:29:07;2.53;;;1.30;;
50205;SDS011;36098;48.390;10.856;2024-03-02T10:31:33;2.90;;;1.02;;
50205;SDS011;36098;48.390;10.856;2024-03-02T10:33:58;1.98;;;1.15;;
50205;SDS011;36098;48.390;10.856;2024-03-02T10:36:25;2.65;;;1.00;;
50205;SDS011;36098;48.390;10.856;2024-03-02T10:38:51;2.97;;;1.08;;
50205;SDS011;36098;48.390;10.856;2024-03-02T10:41:20;3.95;;;1.20;;
50205;SDS011;36098;48.390;10.856;2024-03-02T10:43:48;1.80;;;1.10;;
50205;SDS011;36098;48.390;10.856;2024-03-02T10:46:16;2.38;;;1.20;;
50205;SDS011;36098;48.390;10.856;2024-03-02T10:48:44;3.80;;;1.02;;
50205;SDS011;36098;48.390;10.856;2024-03-02T10:51:11;6.10;;;1.23;;
50205;SDS011;36098;48.390;10.856;2024-03-02T10:53:36;2.90;;;0.95;;
50205;SDS011;36098;48.390;10.856;2024-03-02T10:56:02;3.15;;;1.10;;
50205;SDS011;36098;48.390;10.856;2024-03-02T10:58:32;4.88;;;1.30;;
50205;SDS011;36098;48.390;10.856;2024-03-02T11:01:02;1.70;;;0.80;;
50205;SDS011;36098;48.390;10.856;2024-03-02T11:03:29;6.10;;;1.30;;
50205;SDS011;36098;48.390;10.856;2024-03-02T11:05:58;2.30;;;1.20;;
50205;SDS011;36098;48.390;10.856;2024-03-02T11:08:25;4.78;;;1.20;;
50205;SDS011;36098;48.390;10.856;2024-03-02T11:11:00;2.00;;;1.00;;
50205;SDS011;36098;48.390;10.856;2024-03-02T11:13:31;4.78;;;1.20;;
50205;SDS011;36098;48.390;10.856;2024-03-02T11:16:06;5.32;;;1.20;;
50205;SDS011;36098;48.390;10.856;2024-03-02T11:18:52;4.30;;;1.15;;
50205;SDS011;36098;48.390;10.856;2024-03-02T11:21:17;2.78;;;1.00;;
50205;SDS011;36098;48.390;10.856;2024-03-02T11:23:43;2.22;;;1.20;;
50205;SDS011;36098;48.390;10.856;2024-03-02T11:26:21;5.18;;;1.48;;
50205;SDS011;36098;48.390;10.856;2024-03-02T11:28:50;2.60;;;1.08;;
50205;SDS011;36098;48.390;10.856;2024-03-02T11:31:15;3.08;;;1.05;;
50205;SDS011;36098;48.390;10.856;2024-03-02T11:33:41;11.30;;;1.30;;
50205;SDS011;36098;48.390;10.856;2024-03-02T11:36:06;7.35;;;2.35;;
50205;SDS011;36098;48.390;10.856;2024-03-02T11:38:33;6.55;;;2.30;;
50205;SDS011;36098;48.390;10.856;2024-03-02T11:41:02;5.53;;;2.70;;
50205;SDS011;36098;48.390;10.856;2024-03-02T11:43:32;9.63;;;2.90;;
50205;SDS011;36098;48.390;10.856;2024-03-02T11:45:58;11.48;;;3.20;;
50205;SDS011;36098;48.390;10.856;2024-03-02T11:48:31;6.50;;;2.90;;
50205;SDS011;36098;48.390;10.856;2024-03-02T11:50:57;5.60;;;3.03;;
50205;SDS011;36098;48.390;10.856;2024-03-02T11:53:24;9.95;;;2.28;;
50205;SDS011;36098;48.390;10.856;2024-03-02T11:55:52;11.82;;;2.10;;
50205;SDS011;36098;48.390;10.856;2024-03-02T11:58:20;6.00;;;2.10;;
50205;SDS011;36098;48.390;10.856;2024-03-02T12:00:50;4.30;;;2.03;;
50205;SDS011;36098;48.390;10.856;2024-03-02T12:03:16;11.63;;;1.95;;
50205;SDS011;36098;48.390;10.856;2024-03-02T12:05:42;6.55;;;1.88;;
50205;SDS011;36098;48.390;10.856;2024-03-02T12:08:07;4.22;;;1.75;;
50205;SDS011;36098;48.390;10.856;2024-03-02T12:10:34;8.35;;;2.33;;
50205;SDS011;36098;48.390;10.856;2024-03-02T12:13:02;4.53;;;1.70;;
50205;SDS011;36098;48.390;10.856;2024-03-02T12:15:29;8.40;;;1.85;;
50205;SDS011;36098;48.390;10.856;2024-03-02T12:17:56;4.68;;;1.73;;
50205;SDS011;36098;48.390;10.856;2024-03-02T12:20:23;5.65;;;2.00;;
50205;SDS011;36098;48.390;10.856;2024-03-02T12:22:52;7.60;;;2.00;;
50205;SDS011;36098;48.390;10.856;2024-03-02T12:25:22;3.85;;;2.00;;
50205;SDS011;36098;48.390;10.856;2024-03-02T12:27:50;5.68;;;1.80;;
50205;SDS011;36098;48.390;10.856;2024-03-02T12:30:17;3.88;;;1.42;;
50205;SDS011;36098;48.390;10.856;2024-03-02T12:32:43;5.30;;;1.80;;
50205;SDS011;36098;48.390;10.856;2024-03-02T12:35:12;9.07;;;1.65;;
50205;SDS011;36098;48.390;10.856;2024-03-02T12:37:42;5.35;;;1.85;;
50205;SDS011;36098;48.390;10.856;2024-03-02T12:40:09;4.90;;;1.65;;
50205;SDS011;36098;48.390;10.856;2024-03-02T12:42:36;8.73;;;2.15;;
50205;SDS011;36098;48.390;10.856;2024-03-02T12:45:02;3.50;;;1.83;;
50205;SDS011;36098;48.390;10.856;2024-03-02T12:47:28;4.32;;;1.90;;
50205;SDS011;36098;48.390;10.856;2024-03-02T12:49:54;6.60;;;1.70;;
50205;SDS011;36098;48.390;10.856;2024-03-02T12:52:21;6.95;;;1.85;;
50205;SDS011;36098;48.390;10.856;2024-03-02T12:54:47;3.95;;;2.08;;
50205;SDS011;36098;48.390;10.856;2024-03-02T12:57:16;6.03;;;2.00;;
50205;SDS011;36098;48.390;10.856;2024-03-02T12:59:45;3.45;;;1.90;;
50205;SDS011;36098;48.390;10.856;2024-03-02T13:02:16;5.35;;;1.80;;
50205;SDS011;36098;48.390;10.856;2024-03-02T13:04:42;6.03;;;1.95;;
50205;SDS011;36098;48.390;10.856;2024-03-02T13:07:08;4.60;;;2.25;;
50205;SDS011;36098;48.390;10.856;2024-03-02T13:09:35;8.00;;;2.10;;
50205;SDS011;36098;48.390;10.856;2024-03-02T13:12:01;5.60;;;2.47;;
50205;SDS011;36098;48.390;10.856;2024-03-02T13:14:26;3.15;;;1.90;;
50205;SDS011;36098;48.390;10.856;2024-03-02T13:16:51;4.45;;;2.20;;
50205;SDS011;36098;48.390;10.856;2024-03-02T13:19:18;4.20;;;2.10;;
50205;SDS011;36098;48.390;10.856;2024-03-02T13:21:44;4.50;;;2.10;;
50205;SDS011;36098;48.390;10.856;2024-03-02T13:24:09;5.28;;;2.08;;
50205;SDS011;36098;48.390;10.856;2024-03-02T13:26:35;4.05;;;2.40;;
50205;SDS011;36098;48.390;10.856;2024-03-02T13:29:00;4.15;;;2.25;;
50205;SDS011;36098;48.390;10.856;2024-03-02T13:31:26;3.53;;;1.92;;
50205;SDS011;36098;48.390;10.856;2024-03-02T13:33:51;3.55;;;2.28;;
50205;SDS011;36098;48.390;10.856;2024-03-02T13:36:16;6.05;;;2.45;;
50205;SDS011;36098;48.390;10.856;2024-03-02T13:38:43;5.60;;;2.10;;
50205;SDS011;36098;48.390;10.856;2024-03-02T13:41:08;4.85;;;2.30;;
50205;SDS011;36098;48.390;10.856;2024-03-02T13:43:33;4.60;;;2.08;;
50205;SDS011;36098;48.390;10.856;2024-03-02T13:46:00;3.95;;;2.40;;
50205;SDS011;36098;48.390;10.856;2024-03-02T13:48:27;4.18;;;2.33;;
50205;SDS011;36098;48.390;10.856;2024-03-02T13:50:52;6.13;;;2.58;;
50205;SDS011;36098;48.390;10.856;2024-03-02T13:53:18;5.43;;;2.72;;
50205;SDS011;36098;48.390;10.856;2024-03-02T13:55:43;4.60;;;2.40;;
50205;SDS011;36098;48.390;10.856;2024-03-02T13:58:09;3.92;;;2.38;;
50205;SDS011;36098;48.390;10.856;2024-03-02T14:00:35;4.40;;;2.10;;
50205;SDS011;36098;48.390;10.856;2024-03-02T14:03:02;4.50;;;2.55;;
50205;SDS011;36098;48.390;10.856;2024-03-02T14:05:28;5.53;;;2.90;;
50205;SDS011;36098;48.390;10.856;2024-03-02T14:07:54;5.47;;;2.60;;
50205;SDS011;36098;48.390;10.856;2024-03-02T14:10:19;3.60;;;2.50;;
50205;SDS011;36098;48.390;10.856;2024-03-02T14:12:47;14.00;;;3.80;;
50205;SDS011;36098;48.390;10.856;2024-03-02T14:15:12;150.57;;;57.88;;
50205;SDS011;36098;48.390;10.856;2024-03-02T14:17:37;229.27;;;108.28;;
50205;SDS011;36098;48.390;10.856;2024-03-02T14:20:03;519.63;;;261.27;;
50205;SDS011;36098;48.390;10.856;2024-03-02T14:22:29;326.77;;;153.85;;
50205;SDS011;36098;48.390;10.856;2024-03-02T14:24:55;240.73;;;118.65;;
50205;SDS011;36098;48.390;10.856;2024-03-02T14:27:20;278.25;;;143.30;;
50205;SDS011;36098;48.390;10.856;2024-03-02T14:29:46;472.95;;;247.52;;
50205;SDS011;36098;48.390;10.856;2024-03-02T14:32:11;473.02;;;212.68;;
50205;SDS011;36098;48.390;10.856;2024-03-02T14:34:37;581.47;;;271.17;;
50205;SDS011;36098;48.390;10.856;2024-03-02T14:37:03;527.85;;;252.25;;
50205;SDS011;36098;48.390;10.856;2024-03-02T14:39:28;585.03;;;270.55;;